createdAt,value
2022-11-17T00:02:09.947Z,7.57
2022-11-17T00:04:37.561Z,7.00
2022-11-17T00:07:05.256Z,10.97
2022-11-17T00:09:33.059Z,8.40
2022-11-17T00:12:22.746Z,9.53
2022-11-17T00:14:52.042Z,8.20
2022-11-17T00:17:19.695Z,10.63
2022-11-17T00:20:04.886Z,6.80
2022-11-17T00:22:33.072Z,7.13
2022-11-17T00:25:00.729Z,7.67
2022-11-17T00:27:29.918Z,6.93
2022-11-17T00:29:57.791Z,8.47
2022-11-17T00:32:42.947Z,7.37
2022-11-17T00:35:10.623Z,7.87
2022-11-17T00:37:59.941Z,8.43
2022-11-17T00:40:27.777Z,7.00
2022-11-17T00:42:56.829Z,6.37
2022-11-17T00:45:24.522Z,11.00
2022-11-17T00:47:52.184Z,7.43
2022-11-17T00:50:19.806Z,8.40
2022-11-17T00:52:47.544Z,6.93
2022-11-17T00:55:15.668Z,7.93
2022-11-17T00:57:43.371Z,9.67
2022-11-17T01:00:13.434Z,6.03
2022-11-17T01:02:41.178Z,8.83
2022-11-17T01:05:09.312Z,9.57
2022-11-17T01:07:37.047Z,7.50
2022-11-17T01:10:05.147Z,13.20
2022-11-17T01:12:32.728Z,7.10
2022-11-17T01:15:00.472Z,13.70
2022-11-17T01:17:29.592Z,9.93
2022-11-17T01:19:57.272Z,8.33
2022-11-17T01:22:24.909Z,6.27
2022-11-17T01:24:52.582Z,7.77
2022-11-17T01:27:20.241Z,10.40
2022-11-17T01:29:47.983Z,8.63
2022-11-17T01:32:15.694Z,9.10
2022-11-17T01:34:44.772Z,11.27
2022-11-17T01:37:21.559Z,7.53
2022-11-17T01:39:51.714Z,4.43
2022-11-17T01:42:21.792Z,6.40
2022-11-17T01:45:01.592Z,6.10
2022-11-17T01:47:36.219Z,3.87
2022-11-17T01:50:10.650Z,6.23
2022-11-17T01:52:40.890Z,7.37
2022-11-17T01:55:10.978Z,6.27
2022-11-17T01:57:41.738Z,5.57
2022-11-17T02:00:11.993Z,4.60
2022-11-17T02:02:42.141Z,6.57
2022-11-17T02:05:32.061Z,7.63
2022-11-17T02:08:04.345Z,6.70
2022-11-17T02:10:32.986Z,5.53
2022-11-17T02:13:02.140Z,7.13
2022-11-17T02:15:31.131Z,4.53
2022-11-17T02:18:00.369Z,7.13
2022-11-17T02:20:44.480Z,6.03
2022-11-17T02:23:45.742Z,4.70
2022-11-17T02:26:32.327Z,6.07
2022-11-17T02:29:12.923Z,7.57
2022-11-17T02:31:47.029Z,3.30
2022-11-17T02:34:26.086Z,7.80
2022-11-17T02:36:59.258Z,4.70
2022-11-17T02:39:34.249Z,6.57
2022-11-17T02:42:09.529Z,4.43
2022-11-17T02:44:43.366Z,3.73
2022-11-17T02:47:16.792Z,3.60
2022-11-17T02:49:48.776Z,3.27
2022-11-17T02:52:18.966Z,3.77
2022-11-17T02:54:46.786Z,5.40
2022-11-17T02:57:30.878Z,3.13
2022-11-17T03:00:02.680Z,5.00
2022-11-17T03:02:56.738Z,3.00
2022-11-17T03:05:30.873Z,6.63
2022-11-17T03:08:10.342Z,5.80
2022-11-17T03:10:49.875Z,4.83
2022-11-17T03:13:21.936Z,3.60
2022-11-17T03:15:56.117Z,4.90
2022-11-17T03:18:30.694Z,4.77
2022-11-17T03:21:11.110Z,4.20
2022-11-17T03:23:45.477Z,4.77
2022-11-17T03:26:17.860Z,6.13
2022-11-17T03:28:47.857Z,5.77
2022-11-17T03:31:19.023Z,2.97
2022-11-17T03:33:50.816Z,4.87
2022-11-17T03:36:23.597Z,5.97
2022-11-17T03:38:59.279Z,4.17
2022-11-17T03:41:29.706Z,3.50
2022-11-17T03:43:58.672Z,3.13
2022-11-17T03:46:29.731Z,3.33
2022-11-17T03:49:04.741Z,4.47
2022-11-17T03:51:33.810Z,7.13
2022-11-17T03:54:02.085Z,5.13
2022-11-17T03:56:38.497Z,4.37
2022-11-17T03:59:14.843Z,5.10
2022-11-17T04:01:43.972Z,3.00
2022-11-17T04:04:15.890Z,3.90
2022-11-17T04:06:43.806Z,3.17
2022-11-17T04:09:11.644Z,3.20
2022-11-17T04:11:57.056Z,4.77
2022-11-17T04:14:42.391Z,6.90
2022-11-17T04:17:11.676Z,3.33
2022-11-17T04:19:39.396Z,4.77
2022-11-17T04:22:07.077Z,5.63
2022-11-17T04:24:34.843Z,3.10
2022-11-17T04:27:20.244Z,5.50
2022-11-17T04:29:47.968Z,3.03
2022-11-17T04:32:16.992Z,4.10
2022-11-17T04:34:44.765Z,4.97
2022-11-17T04:37:17.492Z,4.43
2022-11-17T04:39:45.931Z,7.30
2022-11-17T04:42:12.667Z,6.93
2022-11-17T04:44:40.454Z,3.80
2022-11-17T04:47:08.085Z,3.73
2022-11-17T04:49:37.069Z,2.93
2022-11-17T04:52:05.081Z,4.57
2022-11-17T04:54:32.734Z,4.30
2022-11-17T04:57:00.433Z,3.33
2022-11-17T04:59:28.128Z,2.43
2022-11-17T05:01:57.843Z,8.63
2022-11-17T05:04:46.273Z,5.20
2022-11-17T05:07:15.347Z,3.10
2022-11-17T05:09:43.037Z,5.13
2022-11-17T05:12:28.498Z,2.57
2022-11-17T05:14:56.115Z,3.93
2022-11-17T05:17:22.775Z,3.47
2022-11-17T05:19:50.459Z,3.57
2022-11-17T05:22:40.544Z,3.70
2022-11-17T05:25:09.076Z,4.27
2022-11-17T05:27:37.272Z,3.73
2022-11-17T05:30:07.205Z,5.43
2022-11-17T05:32:35.093Z,4.70
2022-11-17T05:35:03.086Z,3.53
2022-11-17T05:37:32.090Z,3.87
2022-11-17T05:39:59.817Z,4.17
2022-11-17T05:42:27.539Z,4.33
2022-11-17T05:44:55.229Z,3.00
2022-11-17T05:47:23.048Z,4.27
2022-11-17T05:49:50.736Z,3.80
2022-11-17T05:52:18.402Z,3.50
2022-11-17T05:54:47.458Z,4.77
2022-11-17T05:57:20.950Z,6.03
2022-11-17T05:59:52.659Z,2.50
2022-11-17T06:02:25.124Z,4.83
2022-11-17T06:04:53.049Z,4.53
2022-11-17T06:07:21.151Z,3.47
2022-11-17T06:09:51.127Z,4.80
2022-11-17T06:12:19.007Z,2.70
2022-11-17T06:14:46.672Z,3.57
2022-11-17T06:17:22.751Z,8.13
2022-11-17T06:19:55.404Z,6.80
2022-11-17T06:22:23.375Z,3.27
2022-11-17T06:24:52.422Z,2.93
2022-11-17T06:27:20.126Z,4.80
2022-11-17T06:29:48.634Z,3.60
2022-11-17T06:32:18.647Z,5.13
2022-11-17T06:34:55.151Z,6.10
2022-11-17T06:37:23.836Z,5.43
2022-11-17T06:39:52.926Z,6.63
2022-11-17T06:42:40.601Z,4.63
2022-11-17T06:45:09.382Z,3.87
2022-11-17T06:47:37.052Z,2.97
2022-11-17T06:50:05.641Z,5.37
2022-11-17T06:52:33.346Z,5.90
2022-11-17T06:55:02.448Z,4.83
2022-11-17T06:57:30.979Z,4.20
2022-11-17T06:59:58.784Z,4.80
2022-11-17T07:02:26.466Z,7.03
2022-11-17T07:04:54.193Z,6.20
2022-11-17T07:07:22.007Z,5.37
2022-11-17T07:09:49.809Z,4.57
2022-11-17T07:12:18.908Z,6.73
2022-11-17T07:14:46.702Z,4.77
2022-11-17T07:17:14.449Z,5.17
2022-11-17T07:19:42.229Z,9.13
2022-11-17T07:22:10.017Z,4.60
2022-11-17T07:24:37.710Z,4.17
2022-11-17T07:27:06.588Z,4.67
2022-11-17T07:29:36.576Z,5.10
2022-11-17T07:32:05.511Z,6.03
2022-11-17T07:34:33.225Z,4.17
2022-11-17T07:37:00.955Z,4.23
2022-11-17T07:39:28.622Z,2.87
2022-11-17T07:41:56.323Z,4.60
2022-11-17T07:44:24.081Z,5.27
2022-11-17T07:46:53.114Z,4.40
2022-11-17T07:49:20.838Z,3.43
2022-11-17T07:51:48.600Z,3.40
2022-11-17T07:54:16.394Z,3.00
2022-11-17T07:56:44.123Z,4.60
2022-11-17T07:59:13.355Z,4.50
2022-11-17T08:01:43.756Z,5.67
2022-11-17T08:04:12.809Z,5.93
2022-11-17T08:06:40.558Z,4.10
2022-11-17T08:09:10.672Z,4.80
2022-11-17T08:11:38.357Z,6.67
2022-11-17T08:14:06.272Z,9.40
2022-11-17T08:16:34.089Z,9.27
2022-11-17T08:19:01.815Z,8.03
2022-11-17T08:21:30.919Z,9.93
2022-11-17T08:24:00.186Z,6.97
2022-11-17T08:26:28.211Z,5.40
2022-11-17T08:28:58.827Z,4.67
2022-11-17T08:31:26.805Z,9.70
2022-11-17T08:33:54.554Z,7.37
2022-11-17T08:36:22.303Z,8.90
2022-11-17T08:38:51.365Z,10.13
2022-11-17T08:41:19.849Z,4.90
2022-11-17T08:43:47.592Z,8.67
2022-11-17T08:46:15.492Z,10.77
2022-11-17T08:48:43.256Z,8.00
2022-11-17T08:51:13.175Z,8.63
2022-11-17T08:53:40.878Z,5.37
2022-11-17T08:56:12.444Z,9.93
2022-11-17T08:58:40.796Z,6.47
2022-11-17T09:01:09.715Z,6.40
2022-11-17T09:03:37.889Z,8.40
2022-11-17T09:06:06.481Z,7.37
2022-11-17T09:08:49.608Z,7.83
2022-11-17T09:11:18.764Z,5.60
2022-11-17T09:13:47.199Z,10.57
2022-11-17T09:16:16.377Z,7.93
2022-11-17T09:18:44.330Z,8.17
2022-11-17T09:21:15.128Z,10.63
2022-11-17T09:23:43.544Z,8.40
2022-11-17T09:26:13.658Z,6.80
2022-11-17T09:28:43.990Z,7.77
2022-11-17T09:31:13.536Z,8.03
2022-11-17T09:33:42.173Z,7.60
2022-11-17T09:36:10.874Z,8.87
2022-11-17T09:38:39.206Z,11.43
2022-11-17T09:41:27.162Z,8.07
2022-11-17T09:44:14.984Z,6.67
2022-11-17T09:46:58.245Z,7.80
2022-11-17T09:49:36.456Z,7.60
2022-11-17T09:52:11.890Z,9.47
2022-11-17T09:54:44.410Z,6.43
2022-11-17T09:57:22.483Z,9.60
2022-11-17T10:00:03.203Z,13.00
2022-11-17T10:02:31.061Z,7.73
2022-11-17T10:04:58.846Z,5.17
2022-11-17T10:07:27.667Z,9.20
2022-11-17T10:09:56.220Z,10.40
2022-11-17T10:12:28.291Z,5.33
2022-11-17T10:14:58.233Z,7.50
2022-11-17T10:17:26.013Z,6.83
2022-11-17T10:19:53.706Z,5.83
2022-11-17T10:22:34.425Z,8.87
2022-11-17T10:25:02.107Z,10.80
2022-11-17T10:27:31.985Z,5.83
2022-11-17T10:30:03.201Z,6.20
2022-11-17T10:32:33.771Z,8.23
2022-11-17T10:35:14.997Z,7.20
2022-11-17T10:37:52.145Z,8.73
2022-11-17T10:40:25.417Z,9.93
2022-11-17T10:43:04.498Z,5.10
2022-11-17T10:45:34.830Z,13.17
2022-11-17T10:48:11.368Z,9.33
2022-11-17T10:50:39.145Z,6.17
2022-11-17T10:53:24.938Z,6.37
2022-11-17T10:56:00.862Z,8.20
2022-11-17T10:58:30.562Z,11.83
2022-11-17T11:01:01.317Z,6.10
2022-11-17T11:03:31.110Z,7.57
2022-11-17T11:06:05.204Z,6.83
2022-11-17T11:08:45.625Z,5.27
2022-11-17T11:11:21.922Z,10.63
2022-11-17T11:13:57.274Z,4.23
2022-11-17T11:16:30.211Z,4.20
2022-11-17T11:18:59.092Z,6.20
2022-11-17T11:21:44.382Z,3.40
2022-11-17T11:24:23.897Z,5.47
2022-11-17T11:27:02.073Z,6.73
2022-11-17T11:29:43.510Z,6.60
2022-11-17T11:32:25.111Z,5.37
2022-11-17T11:35:07.331Z,9.57
2022-11-17T11:37:41.348Z,4.50
2022-11-17T11:40:16.342Z,5.77
2022-11-17T11:42:53.924Z,5.73
2022-11-17T11:45:42.642Z,6.70
2022-11-17T11:48:18.442Z,3.40
2022-11-17T11:50:53.699Z,4.90
2022-11-17T11:53:31.111Z,5.57
2022-11-17T11:56:10.250Z,6.90
2022-11-17T11:58:43.627Z,5.53
2022-11-17T12:01:13.123Z,8.17
2022-11-17T12:03:49.986Z,6.50
2022-11-17T12:06:43.168Z,5.57
2022-11-17T12:09:25.382Z,8.97
2022-11-17T12:12:03.553Z,7.53
2022-11-17T12:14:32.880Z,9.37
2022-11-17T12:17:07.477Z,7.90
2022-11-17T12:19:57.208Z,6.27
2022-11-17T12:22:59.580Z,9.40
2022-11-17T12:25:30.357Z,6.87
2022-11-17T12:27:58.071Z,8.50
2022-11-17T12:30:55.150Z,9.50
2022-11-17T12:33:23.809Z,7.03
2022-11-17T12:36:30.798Z,8.77
2022-11-17T12:39:01.033Z,7.87
2022-11-17T12:42:06.784Z,10.30
2022-11-17T12:44:44.562Z,6.93
2022-11-17T12:47:18.140Z,6.90
2022-11-17T12:49:57.302Z,7.93
2022-11-17T12:52:36.131Z,11.67
2022-11-17T12:55:14.393Z,7.37
2022-11-17T12:57:45.205Z,10.33
2022-11-17T13:00:19.177Z,15.60
2022-11-17T13:03:00.095Z,8.60
2022-11-17T13:05:30.445Z,10.47
2022-11-17T13:08:21.295Z,9.77
2022-11-17T13:10:49.130Z,7.93
2022-11-17T13:13:19.376Z,14.17
2022-11-17T13:15:50.982Z,13.03
2022-11-17T13:18:33.034Z,9.13
2022-11-17T13:21:01.736Z,14.47
2022-11-17T13:23:32.961Z,10.63
2022-11-17T13:26:11.663Z,9.30
2022-11-17T13:28:39.407Z,10.70
2022-11-17T13:31:07.679Z,10.90
2022-11-17T13:33:39.986Z,11.90
2022-11-17T13:36:19.795Z,11.40
2022-11-17T13:38:50.621Z,7.80
2022-11-17T13:41:20.093Z,9.37
2022-11-17T13:43:48.699Z,10.20
2022-11-17T13:46:19.926Z,7.60
2022-11-17T13:48:54.015Z,10.37
2022-11-17T13:51:33.285Z,9.57
2022-11-17T13:54:05.236Z,7.73
2022-11-17T13:56:36.280Z,6.47
2022-11-17T13:59:10.475Z,3.80
2022-11-17T14:01:38.224Z,3.47
2022-11-17T14:04:20.346Z,7.30
2022-11-17T14:06:57.033Z,11.00
2022-11-17T14:09:30.740Z,9.13
2022-11-17T14:12:01.831Z,4.03
2022-11-17T14:14:35.914Z,6.87
2022-11-17T14:17:13.416Z,5.10
2022-11-17T14:19:41.761Z,4.90
2022-11-17T14:22:30.954Z,3.23
2022-11-17T14:25:00.986Z,4.50
2022-11-17T14:27:41.654Z,5.10
2022-11-17T14:30:15.773Z,3.03
2022-11-17T14:32:44.223Z,7.93
2022-11-17T14:35:15.105Z,4.07
2022-11-17T14:37:43.226Z,4.40
2022-11-17T14:40:17.594Z,4.33
2022-11-17T14:42:45.603Z,5.10
2022-11-17T14:45:15.099Z,5.23
2022-11-17T14:47:43.553Z,3.87
2022-11-17T14:50:14.058Z,5.93
2022-11-17T14:52:42.503Z,7.60
2022-11-17T14:55:10.665Z,6.77
2022-11-17T14:57:40.493Z,5.50
2022-11-17T15:00:14.578Z,6.37
2022-11-17T15:02:45.135Z,4.97
2022-11-17T15:05:13.600Z,5.60
2022-11-17T15:07:42.510Z,5.63
2022-11-17T15:10:11.345Z,6.00
2022-11-17T15:12:40.487Z,1.93
2022-11-17T15:15:09.019Z,5.33
2022-11-17T15:17:39.768Z,4.80
2022-11-17T15:20:12.042Z,4.33
2022-11-17T15:22:39.985Z,3.43
2022-11-17T15:25:10.891Z,4.60
2022-11-17T15:27:39.944Z,8.23
2022-11-17T15:30:09.208Z,7.07
2022-11-17T15:32:39.853Z,4.60
2022-11-17T15:35:09.525Z,6.53
2022-11-17T15:37:37.404Z,3.10
2022-11-17T15:40:06.124Z,7.70
2022-11-17T15:42:33.933Z,6.53
2022-11-17T15:45:02.973Z,7.50
2022-11-17T15:47:30.673Z,3.47
2022-11-17T15:49:59.019Z,6.30
2022-11-17T15:52:48.840Z,4.90
2022-11-17T15:55:14.755Z,1.67
2022-11-17T15:57:42.449Z,5.47
2022-11-17T16:00:13.627Z,3.60
2022-11-17T16:02:42.012Z,6.80
2022-11-17T16:05:10.170Z,3.00
2022-11-17T16:07:38.050Z,4.63
2022-11-17T16:10:06.531Z,3.17
2022-11-17T16:12:34.326Z,3.27
2022-11-17T16:15:01.988Z,2.77
2022-11-17T16:17:31.216Z,4.33
2022-11-17T16:19:59.183Z,3.77
2022-11-17T16:22:27.127Z,5.27
2022-11-17T16:24:54.874Z,3.23
2022-11-17T16:27:22.625Z,4.00
2022-11-17T16:29:50.360Z,6.47
2022-11-17T16:32:18.253Z,5.83
2022-11-17T16:34:49.002Z,6.63
2022-11-17T16:37:17.263Z,7.17
2022-11-17T16:39:45.036Z,8.13
2022-11-17T16:42:12.776Z,6.30
2022-11-17T16:44:40.569Z,6.00
2022-11-17T16:47:08.338Z,6.60
2022-11-17T16:49:36.642Z,5.27
2022-11-17T16:52:05.727Z,8.93
2022-11-17T16:54:33.798Z,10.33
2022-11-17T16:57:01.534Z,5.70
2022-11-17T16:59:29.416Z,7.50
2022-11-17T17:01:57.244Z,7.80
2022-11-17T17:04:25.044Z,10.20
2022-11-17T17:06:52.872Z,17.87
2022-11-17T17:09:27.646Z,14.80
2022-11-17T17:11:55.762Z,12.27
2022-11-17T17:14:23.707Z,6.03
2022-11-17T17:16:51.564Z,6.87
2022-11-17T17:19:19.437Z,6.23
2022-11-17T17:21:47.310Z,6.53
2022-11-17T17:24:15.229Z,7.40
2022-11-17T17:26:44.588Z,8.30
2022-11-17T17:29:13.277Z,9.77
2022-11-17T17:31:42.709Z,16.70
2022-11-17T17:34:12.936Z,12.07
2022-11-17T17:36:40.819Z,9.20
2022-11-17T17:39:08.782Z,6.47
2022-11-17T17:41:40.773Z,5.77
2022-11-17T17:44:15.084Z,8.90
2022-11-17T17:46:43.656Z,11.07
2022-11-17T17:49:11.434Z,8.70
2022-11-17T17:51:42.201Z,7.17
2022-11-17T17:54:15.550Z,10.47
2022-11-17T17:56:43.484Z,8.60
2022-11-17T17:59:13.364Z,10.33
2022-11-17T18:01:42.255Z,7.83
2022-11-17T18:04:15.482Z,6.37
2022-11-17T18:06:46.227Z,7.00
2022-11-17T18:09:15.667Z,9.17
2022-11-17T18:11:47.999Z,8.87
2022-11-17T18:14:20.335Z,8.33
2022-11-17T18:16:48.153Z,9.87
2022-11-17T18:19:17.318Z,8.20
2022-11-17T18:21:45.701Z,9.40
2022-11-17T18:24:14.163Z,7.73
2022-11-17T18:26:42.308Z,6.30
2022-11-17T18:29:16.096Z,7.63
2022-11-17T18:31:47.387Z,9.20
2022-11-17T18:34:17.176Z,8.83
2022-11-17T18:36:44.838Z,8.93
2022-11-17T18:39:12.828Z,7.73
2022-11-17T18:41:40.679Z,13.03
2022-11-17T18:44:08.473Z,8.40
2022-11-17T18:46:36.164Z,7.30
2022-11-17T18:49:05.307Z,9.67
2022-11-17T18:51:34.165Z,9.57
2022-11-17T18:54:02.822Z,8.23
2022-11-17T18:56:34.186Z,11.73
2022-11-17T18:59:03.673Z,11.07
2022-11-17T19:01:31.892Z,10.37
2022-11-17T19:04:01.258Z,11.27
2022-11-17T19:06:31.382Z,15.67
2022-11-17T19:09:00.287Z,13.73
2022-11-17T19:11:30.756Z,11.03
2022-11-17T19:14:02.091Z,15.97
2022-11-17T19:16:30.320Z,12.83
2022-11-17T19:18:59.244Z,15.47
2022-11-17T19:21:28.494Z,12.10
2022-11-17T19:24:00.924Z,14.03
2022-11-17T19:26:30.150Z,12.27
2022-11-17T19:28:59.530Z,15.27
2022-11-17T19:31:28.206Z,19.63
2022-11-17T19:33:57.772Z,17.00
2022-11-17T19:36:27.313Z,14.43
2022-11-17T19:38:59.063Z,15.10
2022-11-17T19:41:28.963Z,15.40
2022-11-17T19:43:58.352Z,16.93
2022-11-17T19:46:27.693Z,16.03
2022-11-17T19:48:56.314Z,16.60
2022-11-17T19:51:26.130Z,13.70
2022-11-17T19:53:55.661Z,12.13
2022-11-17T19:56:26.697Z,15.90
2022-11-17T19:58:55.664Z,15.20
2022-11-17T20:01:25.015Z,14.93
2022-11-17T20:03:53.154Z,14.07
2022-11-17T20:06:23.006Z,19.20
2022-11-17T20:08:51.121Z,14.77
2022-11-17T20:11:20.744Z,18.23
2022-11-17T20:13:50.365Z,13.73
2022-11-17T20:16:19.686Z,12.67
2022-11-17T20:18:51.035Z,11.73
2022-11-17T20:21:19.196Z,14.67
2022-11-17T20:23:47.595Z,11.97
2022-11-17T20:26:17.654Z,13.30
2022-11-17T20:28:45.809Z,14.07
2022-11-17T20:31:16.700Z,13.40
2022-11-17T20:33:45.074Z,15.60
2022-11-17T20:36:15.268Z,12.87
2022-11-17T20:38:43.143Z,16.33
2022-11-17T20:41:11.435Z,17.33
2022-11-17T20:43:39.124Z,16.17
2022-11-17T20:46:07.281Z,13.93
2022-11-17T20:48:36.970Z,15.80
2022-11-17T20:51:07.129Z,15.73
2022-11-17T20:53:35.323Z,12.33
2022-11-17T20:56:05.144Z,14.80
2022-11-17T20:58:33.185Z,13.17
2022-11-17T21:01:07.550Z,11.67
2022-11-17T21:03:37.286Z,12.37
2022-11-17T21:06:06.702Z,10.83
2022-11-17T21:08:36.411Z,13.30
2022-11-17T21:11:09.610Z,10.47
2022-11-17T21:13:38.849Z,15.17
2022-11-17T21:16:08.938Z,14.33
2022-11-17T21:18:39.952Z,11.77
2022-11-17T21:21:09.632Z,11.83
2022-11-17T21:23:37.998Z,10.50
2022-11-17T21:26:06.892Z,9.97
2022-11-17T21:28:34.727Z,10.20
2022-11-17T21:31:08.168Z,9.33
2022-11-17T21:33:36.187Z,8.30
2022-11-17T21:36:07.114Z,9.80
2022-11-17T21:38:34.925Z,9.17
2022-11-17T21:41:03.859Z,7.00
2022-11-17T21:43:31.966Z,9.67
2022-11-17T21:46:03.389Z,10.70
2022-11-17T21:48:31.149Z,10.13
2022-11-17T21:50:58.879Z,10.93
2022-11-17T21:53:28.227Z,13.37
2022-11-17T21:56:01.820Z,11.73
2022-11-17T21:58:29.645Z,12.57
2022-11-17T22:00:57.521Z,9.37
2022-11-17T22:03:25.366Z,11.60
2022-11-17T22:05:56.775Z,14.33
2022-11-17T22:08:28.599Z,11.07
2022-11-17T22:10:56.361Z,13.50
2022-11-17T22:13:24.114Z,10.13
2022-11-17T22:15:51.779Z,14.17
2022-11-17T22:18:19.501Z,8.83
2022-11-17T22:20:51.668Z,10.67
2022-11-17T22:23:19.671Z,9.93
2022-11-17T22:25:55.608Z,11.67
2022-11-17T22:28:25.308Z,11.10
2022-11-17T22:30:53.925Z,11.77
2022-11-17T22:33:24.390Z,13.73
2022-11-17T22:35:52.158Z,14.53
2022-11-17T22:38:19.843Z,10.97
2022-11-17T22:40:50.472Z,8.33
2022-11-17T22:43:19.569Z,9.43
2022-11-17T22:45:47.215Z,10.53
2022-11-17T22:48:14.885Z,9.73
2022-11-17T22:50:42.695Z,10.67
2022-11-17T22:53:10.382Z,10.90
2022-11-17T22:55:38.126Z,11.33
2022-11-17T22:58:05.923Z,14.30
2022-11-17T23:00:34.998Z,9.90
2022-11-17T23:03:02.773Z,10.63
2022-11-17T23:05:30.594Z,11.60
2022-11-17T23:07:58.234Z,12.67
2022-11-17T23:10:25.989Z,11.67
2022-11-17T23:12:54.216Z,12.50
2022-11-17T23:15:22.352Z,10.27
2022-11-17T23:17:51.336Z,14.03
2022-11-17T23:20:19.094Z,15.13
2022-11-17T23:22:46.763Z,10.70
2022-11-17T23:25:14.406Z,13.37
2022-11-17T23:27:42.129Z,11.00
2022-11-17T23:30:10.839Z,10.37
2022-11-17T23:32:38.567Z,9.77
2022-11-17T23:35:08.652Z,11.73
2022-11-17T23:37:36.329Z,10.53
2022-11-17T23:40:04.082Z,10.03
2022-11-17T23:42:32.832Z,11.20
2022-11-17T23:45:01.435Z,12.67
2022-11-17T23:47:29.096Z,12.73
2022-11-17T23:49:56.824Z,10.83
2022-11-17T23:52:25.865Z,10.63
2022-11-17T23:54:53.592Z,7.10
2022-11-17T23:57:21.304Z,7.03
2022-11-17T23:59:48.966Z,11.20
